Time;durP1;ratioP1;P1;durP2;ratioP2;P2;SDS_P1;SDS_P2;PMS_P1;PMS_P2;Temp;Humidity;BMP_temperature;BMP_pressure;BME280_temperature;BME280_humidity;BME280_pressure;Samples;Min_cycle;Max_cycle;Signal;HPM_P1;HPM_P2
2024/04/13 00:01:54;;;;;;;28.85;9.35;;;10.30;100.00;;;;;;5363691;26;20004;-76
2024/04/13 00:04:23;;;;;;;50.78;9.93;;;10.30;100.00;;;;;;5368548;26;20404;-75
2024/04/13 00:06:51;;;;;;;37.28;9.55;;;10.30;100.00;;;;;;5367122;26;20008;-75
2024/04/13 00:09:18;;;;;;;40.33;9.82;;;10.30;100.00;;;;;;5336197;26;20468;-76
2024/04/13 00:11:45;;;;;;;40.53;9.20;;;10.30;100.00;;;;;;5349902;26;20001;-76
2024/04/13 00:14:12;;;;;;;37.28;9.80;;;10.20;100.00;;;;;;5355675;26;20012;-76
2024/04/13 00:16:38;;;;;;;35.22;10.65;;;10.20;100.00;;;;;;5369229;26;20007;-76
2024/04/13 00:19:05;;;;;;;33.25;10.23;;;10.20;100.00;;;;;;5367723;26;20027;-75
2024/04/13 00:21:32;;;;;;;32.63;10.60;;;10.10;100.00;;;;;;5340507;26;20004;-76
2024/04/13 00:23:59;;;;;;;31.17;9.13;;;10.10;100.00;;;;;;5359919;26;20015;-75
2024/04/13 00:26:27;;;;;;;34.05;10.77;;;10.10;100.00;;;;;;5366311;26;20008;-76
2024/04/13 00:28:54;;;;;;;34.20;9.45;;;10.00;100.00;;;;;;5365856;26;20004;-76
2024/04/13 00:31:21;;;;;;;34.75;10.27;;;10.00;100.00;;;;;;5358546;26;20012;-76
2024/04/13 00:33:48;;;;;;;42.50;9.70;;;9.90;100.00;;;;;;5369586;26;20015;-76
2024/04/13 00:36:16;;;;;;;40.22;9.70;;;9.90;100.00;;;;;;5337436;26;20001;-76
2024/04/13 00:38:43;;;;;;;30.67;9.00;;;9.80;100.00;;;;;;5362511;26;20023;-75
2024/04/13 00:41:12;;;;;;;31.83;10.32;;;9.80;100.00;;;;;;5344411;26;20000;-76
2024/04/13 00:43:39;;;;;;;39.78;9.90;;;9.80;100.00;;;;;;5324913;26;20004;-76
2024/04/13 00:46:16;;;;;;;41.60;9.73;;;9.80;100.00;;;;;;5353825;26;20050;-76
2024/04/13 00:48:43;;;;;;;35.38;9.20;;;9.80;100.00;;;;;;5345408;26;20651;-76
2024/04/13 00:51:12;;;;;;;37.05;10.60;;;9.70;100.00;;;;;;5354521;26;20019;-76
2024/04/13 00:53:41;;;;;;;41.03;10.77;;;9.70;100.00;;;;;;5367138;26;19996;-76
2024/04/13 00:56:10;;;;;;;37.33;10.55;;;9.70;100.00;;;;;;5334352;26;20061;-76
2024/04/13 00:58:38;;;;;;;35.40;9.20;;;9.60;100.00;;;;;;5332621;26;20001;-76
2024/04/13 01:01:10;;;;;;;33.17;9.15;;;9.60;100.00;;;;;;5368485;26;20000;-76
2024/04/13 01:03:38;;;;;;;31.98;9.23;;;9.50;100.00;;;;;;5343240;26;20015;-76
2024/04/13 01:06:08;;;;;;;30.25;9.82;;;9.50;100.00;;;;;;5367860;26;20447;-76
2024/04/13 01:08:35;;;;;;;41.55;10.43;;;9.40;100.00;;;;;;5355889;26;20326;-75
2024/04/13 01:11:02;;;;;;;50.92;9.90;;;9.30;100.00;;;;;;5366480;26;20031;-75
2024/04/13 01:13:29;;;;;;;33.90;9.40;;;9.20;100.00;;;;;;5358518;26;20703;-76
2024/04/13 01:15:58;;;;;;;30.77;9.80;;;9.20;100.00;;;;;;5368442;26;20000;-76
2024/04/13 01:18:26;;;;;;;33.38;10.45;;;9.10;100.00;;;;;;5336226;26;20004;-76
2024/04/13 01:20:53;;;;;;;39.78;10.02;;;9.10;100.00;;;;;;5367260;26;20004;-76
2024/04/13 01:23:22;;;;;;;42.05;10.70;;;9.10;100.00;;;;;;5367939;26;20016;-76
2024/04/13 01:25:49;;;;;;;40.88;9.98;;;9.10;100.00;;;;;;5365950;26;20004;-76
2024/04/13 01:28:17;;;;;;;33.22;10.32;;;9.00;100.00;;;;;;5367417;26;20004;-76
2024/04/13 01:30:44;;;;;;;38.72;10.10;;;9.00;100.00;;;;;;5366465;26;20134;-75
2024/04/13 01:33:11;;;;;;;35.30;10.73;;;8.90;100.00;;;;;;5356886;26;20043;-76
2024/04/13 01:35:38;;;;;;;51.72;11.10;;;8.90;100.00;;;;;;5368048;26;20004;-76
2024/04/13 01:38:06;;;;;;;35.80;11.48;;;8.90;100.00;;;;;;5353848;26;20036;-75
2024/04/13 01:40:33;;;;;;;34.38;10.50;;;8.90;100.00;;;;;;5366924;26;20016;-76
2024/04/13 01:42:59;;;;;;;35.78;9.35;;;8.80;100.00;;;;;;5367699;26;19997;-75
2024/04/13 01:45:26;;;;;;;38.65;10.02;;;8.70;100.00;;;;;;5355306;26;20333;-76
2024/04/13 01:47:53;;;;;;;40.25;10.05;;;8.70;100.00;;;;;;5360303;26;20917;-75
2024/04/13 01:50:20;;;;;;;40.45;10.23;;;8.60;100.00;;;;;;5352213;26;20017;-75
2024/04/13 01:52:47;;;;;;;41.15;10.85;;;8.60;100.00;;;;;;5368665;26;20131;-75
2024/04/13 01:55:14;;;;;;;46.33;10.02;;;8.60;100.00;;;;;;5370257;26;20004;-75
2024/04/13 01:57:41;;;;;;;34.63;11.23;;;8.60;100.00;;;;;;5365461;26;20761;-75
2024/04/13 02:00:08;;;;;;;40.70;11.98;;;8.50;100.00;;;;;;5355190;26;20004;-75
2024/04/13 02:02:35;;;;;;;28.90;9.77;;;8.50;100.00;;;;;;5361856;26;20000;-75
2024/04/13 02:05:02;;;;;;;39.97;10.52;;;8.50;100.00;;;;;;5370692;26;20012;-76
2024/04/13 02:07:29;;;;;;;41.30;10.50;;;8.50;100.00;;;;;;5370095;26;19997;-76
2024/04/13 02:09:56;;;;;;;44.25;9.85;;;8.40;100.00;;;;;;5366075;26;20015;-75
2024/04/13 02:12:23;;;;;;;59.55;11.73;;;8.30;100.00;;;;;;5368376;26;20077;-75
2024/04/13 02:14:50;;;;;;;35.05;10.45;;;8.30;100.00;;;;;;5347407;26;20012;-75
2024/04/13 02:17:17;;;;;;;38.10;10.50;;;8.20;100.00;;;;;;5371348;26;20004;-76
2024/04/13 02:19:45;;;;;;;44.03;11.20;;;8.20;100.00;;;;;;5368859;26;20015;-76
2024/04/13 02:22:12;;;;;;;45.58;11.43;;;8.20;100.00;;;;;;5360769;26;20004;-76
2024/04/13 02:24:39;;;;;;;43.40;10.88;;;8.20;100.00;;;;;;5358327;26;20001;-76
2024/04/13 02:27:06;;;;;;;32.38;10.23;;;8.20;100.00;;;;;;5313633;26;20016;-76
2024/04/13 02:29:33;;;;;;;45.78;11.55;;;8.10;100.00;;;;;;5370432;26;19996;-75
2024/04/13 02:32:00;;;;;;;42.67;12.02;;;8.10;100.00;;;;;;5362484;26;20005;-76
2024/04/13 02:34:27;;;;;;;37.88;11.55;;;8.10;100.00;;;;;;5370590;26;19996;-76
2024/04/13 02:36:54;;;;;;;40.45;12.55;;;8.10;100.00;;;;;;5360322;26;20004;-76
2024/04/13 02:39:21;;;;;;;45.15;11.82;;;8.00;100.00;;;;;;5364853;26;20000;-76
2024/04/13 02:41:48;;;;;;;42.28;11.02;;;8.00;100.00;;;;;;5371443;26;20012;-76
2024/04/13 02:44:15;;;;;;;35.38;11.38;;;8.00;100.00;;;;;;5370592;26;20390;-75
2024/04/13 02:46:42;;;;;;;40.88;11.38;;;8.00;100.00;;;;;;5371267;26;20000;-76
2024/04/13 02:49:10;;;;;;;51.20;12.88;;;8.00;100.00;;;;;;5370862;26;20606;-76
2024/04/13 02:51:37;;;;;;;45.95;10.80;;;8.00;100.00;;;;;;5354935;26;20628;-76
2024/04/13 02:54:04;;;;;;;44.70;11.48;;;8.00;100.00;;;;;;5363945;26;20020;-76
2024/04/13 02:56:33;;;;;;;50.90;11.90;;;8.00;100.00;;;;;;5340618;26;20012;-76
2024/04/13 02:59:00;;;;;;;51.42;12.55;;;8.00;100.00;;;;;;5366255;26;20128;-76
2024/04/13 03:01:27;;;;;;;48.65;12.75;;;7.90;100.00;;;;;;5358719;26;20001;-76
2024/04/13 03:03:54;;;;;;;46.05;11.82;;;7.90;100.00;;;;;;5361801;26;19996;-75
2024/04/13 03:06:21;;;;;;;46.95;11.57;;;7.90;100.00;;;;;;5361996;26;20005;-76
2024/04/13 03:08:50;;;;;;;48.85;13.13;;;7.80;100.00;;;;;;5365898;26;20555;-76
2024/04/13 03:11:18;;;;;;;44.97;12.02;;;7.80;100.00;;;;;;5361363;26;20082;-76
2024/04/13 03:13:45;;;;;;;52.72;12.10;;;7.80;100.00;;;;;;5357371;26;20001;-75
2024/04/13 03:16:12;;;;;;;48.05;11.45;;;7.70;100.00;;;;;;5329695;26;20005;-76
2024/04/13 03:18:46;;;;;;;42.35;12.27;;;7.80;100.00;;;;;;5362542;26;20000;-75
2024/04/13 03:21:13;;;;;;;42.65;12.02;;;7.70;100.00;;;;;;5329300;26;20004;-76
2024/04/13 03:23:41;;;;;;;49.20;12.73;;;7.70;100.00;;;;;;5363286;26;20473;-76
2024/04/13 03:26:08;;;;;;;45.53;11.95;;;7.70;100.00;;;;;;5366351;26;20004;-75
2024/04/13 03:28:36;;;;;;;36.50;12.23;;;7.70;100.00;;;;;;5353432;26;20008;-76
2024/04/13 03:31:04;;;;;;;46.30;12.48;;;7.70;100.00;;;;;;5362941;26;20004;-75
2024/04/13 03:33:31;;;;;;;39.40;12.07;;;7.70;100.00;;;;;;5366052;26;20008;-76
2024/04/13 03:36:05;;;;;;;41.97;12.15;;;7.60;100.00;;;;;;5365172;26;20012;-76
2024/04/13 03:38:33;;;;;;;41.45;11.68;;;7.60;100.00;;;;;;5367130;26;20000;-76
2024/04/13 03:41:08;;;;;;;54.95;12.57;;;7.60;100.00;;;;;;5357700;26;20005;-75
2024/04/13 03:43:37;;;;;;;48.70;11.85;;;7.60;100.00;;;;;;5364106;26;20399;-76
2024/04/13 03:46:05;;;;;;;52.13;12.07;;;7.60;100.00;;;;;;5365995;26;20008;-76
2024/04/13 03:48:32;;;;;;;56.70;13.82;;;7.60;100.00;;;;;;5353672;26;20000;-76
2024/04/13 03:51:01;;;;;;;52.95;13.38;;;7.50;100.00;;;;;;5362309;26;20120;-76
2024/04/13 03:53:28;;;;;;;51.65;13.35;;;7.60;100.00;;;;;;5365568;26;20012;-76
2024/04/13 03:55:56;;;;;;;57.92;13.10;;;7.60;100.00;;;;;;5351567;26;20011;-76
2024/04/13 03:58:22;;;;;;;51.45;13.52;;;7.50;100.00;;;;;;5361289;26;20330;-76
2024/04/13 04:00:49;;;;;;;65.95;13.30;;;7.60;100.00;;;;;;5364069;26;20631;-76
2024/04/13 04:03:16;;;;;;;58.72;13.25;;;7.50;100.00;;;;;;5334317;26;20658;-76
2024/04/13 04:05:47;;;;;;;58.45;13.93;;;7.50;100.00;;;;;;5364127;26;20005;-76
2024/04/13 04:08:14;;;;;;;56.05;12.70;;;7.50;100.00;;;;;;5364710;26;20000;-76
2024/04/13 04:10:41;;;;;;;59.38;14.60;;;7.50;100.00;;;;;;5328278;26;20005;-75
2024/04/13 04:13:08;;;;;;;66.68;13.43;;;7.50;100.00;;;;;;5363028;26;20004;-75
2024/04/13 04:15:36;;;;;;;49.13;12.55;;;7.50;100.00;;;;;;5369921;26;20015;-75
2024/04/13 04:18:03;;;;;;;51.47;12.77;;;7.50;100.00;;;;;;5361789;26;20833;-75
2024/04/13 04:20:34;;;;;;;51.33;13.68;;;7.50;100.00;;;;;;5351902;26;20044;-76
2024/04/13 04:23:01;;;;;;;56.55;13.65;;;7.50;100.00;;;;;;5362138;26;20010;-75
2024/04/13 04:25:28;;;;;;;60.53;14.07;;;7.50;100.00;;;;;;5332557;26;20554;-76
2024/04/13 04:27:55;;;;;;;53.28;13.55;;;7.50;100.00;;;;;;5352580;26;20000;-76
2024/04/13 04:30:22;;;;;;;53.42;13.95;;;7.60;100.00;;;;;;5358910;26;20591;-75
2024/04/13 04:32:49;;;;;;;52.45;13.68;;;7.60;100.00;;;;;;5363513;26;20011;-76
2024/04/13 04:35:16;;;;;;;41.50;12.25;;;7.60;100.00;;;;;;5359631;26;20356;-76
2024/04/13 04:37:43;;;;;;;54.50;12.95;;;7.60;100.00;;;;;;5337379;26;21082;-76
2024/04/13 04:40:10;;;;;;;51.00;14.52;;;7.60;100.00;;;;;;5360789;26;20445;-76
2024/04/13 04:42:37;;;;;;;39.22;12.93;;;7.60;100.00;;;;;;5356804;26;20004;-76
2024/04/13 04:45:07;;;;;;;57.15;12.63;;;7.70;100.00;;;;;;5360035;26;20044;-76
2024/04/13 04:47:35;;;;;;;52.50;14.23;;;7.70;100.00;;;;;;5327158;26;20469;-76
2024/04/13 04:50:03;;;;;;;47.95;13.68;;;7.70;100.00;;;;;;5358679;26;20001;-76
2024/04/13 04:52:31;;;;;;;51.15;15.27;;;7.80;100.00;;;;;;5360525;26;20331;-76
2024/04/13 04:55:01;;;;;;;54.65;13.30;;;7.80;100.00;;;;;;5322964;26;20024;-76
2024/04/13 04:57:28;;;;;;;40.65;14.15;;;7.90;100.00;;;;;;5327087;26;20024;-76
2024/04/13 04:59:56;;;;;;;54.55;13.13;;;7.90;100.00;;;;;;5346323;26;20001;-76
2024/04/13 05:02:24;;;;;;;59.50;14.65;;;7.90;100.00;;;;;;5357662;26;20016;-76
2024/04/13 05:04:51;;;;;;;58.42;14.43;;;8.00;100.00;;;;;;5352892;26;20022;-76
2024/04/13 05:07:19;;;;;;;63.05;13.73;;;8.10;100.00;;;;;;5358992;26;20070;-76
2024/04/13 05:09:46;;;;;;;52.53;13.30;;;8.10;100.00;;;;;;5330063;26;20457;-77
2024/04/13 05:12:14;;;;;;;52.28;14.05;;;8.20;100.00;;;;;;5361464;26;20012;-76
2024/04/13 05:14:41;;;;;;;49.90;13.18;;;8.20;100.00;;;;;;5353656;26;20012;-76
2024/04/13 05:17:07;;;;;;;60.50;14.20;;;8.30;100.00;;;;;;5359161;26;20019;-76
2024/04/13 05:19:38;;;;;;;52.30;15.95;;;8.30;100.00;;;;;;5352752;26;20013;-76
2024/04/13 05:22:06;;;;;;;55.90;14.27;;;8.40;100.00;;;;;;5356530;26;20419;-77
2024/04/13 05:24:33;;;;;;;49.28;14.55;;;8.50;100.00;;;;;;5349054;26;20052;-77
2024/04/13 05:27:06;;;;;;;50.33;13.52;;;8.60;100.00;;;;;;5364454;26;20448;-77
2024/04/13 05:29:34;;;;;;;62.60;15.95;;;8.70;100.00;;;;;;5362659;26;20014;-76
2024/04/13 05:32:04;;;;;;;53.25;13.60;;;8.80;100.00;;;;;;5363400;26;20004;-77
2024/04/13 05:34:31;;;;;;;52.15;13.77;;;8.90;100.00;;;;;;5361007;26;20000;-76
2024/04/13 05:36:58;;;;;;;50.03;13.82;;;9.00;100.00;;;;;;5360422;26;20051;-78
2024/04/13 05:39:27;;;;;;;46.60;13.75;;;9.10;100.00;;;;;;5360359;26;20012;-77
2024/04/13 05:41:54;;;;;;;46.75;12.63;;;9.20;100.00;;;;;;5353005;26;20005;-76
2024/04/13 05:44:21;;;;;;;51.53;13.50;;;9.30;100.00;;;;;;5357153;26;20005;-77
2024/04/13 05:46:50;;;;;;;51.10;13.52;;;9.40;100.00;;;;;;5356157;26;20015;-78
2024/04/13 05:49:17;;;;;;;35.67;12.32;;;9.50;100.00;;;;;;5361264;26;20009;-79
2024/04/13 05:51:45;;;;;;;41.65;11.63;;;9.60;100.00;;;;;;5360242;26;20008;-78
2024/04/13 05:54:12;;;;;;;39.63;16.35;;;9.80;100.00;;;;;;5362645;26;20024;-80
2024/04/13 05:56:40;;;;;;;34.17;13.38;;;9.90;100.00;;;;;;5368681;26;20012;-78
2024/04/13 05:59:07;;;;;;;41.33;12.75;;;10.10;100.00;;;;;;5356181;26;20012;-80
2024/04/13 06:01:34;;;;;;;32.33;13.00;;;10.20;100.00;;;;;;5370803;26;20040;-84
2024/04/13 06:04:01;;;;;;;41.42;21.60;;;10.30;100.00;;;;;;5374278;26;20000;-82
2024/04/13 06:06:28;;;;;;;43.95;14.93;;;10.50;100.00;;;;;;5371280;26;20046;-81
2024/04/13 06:08:55;;;;;;;34.13;12.43;;;10.60;100.00;;;;;;5342398;26;20027;-78
2024/04/13 06:11:22;;;;;;;31.23;11.18;;;10.80;100.00;;;;;;5338940;26;20016;-77
2024/04/13 06:13:49;;;;;;;30.58;10.55;;;11.00;100.00;;;;;;5354883;26;20044;-76
2024/04/13 06:16:16;;;;;;;31.17;10.32;;;11.10;100.00;;;;;;5358842;26;20060;-77
2024/04/13 06:18:43;;;;;;;35.55;11.18;;;11.30;100.00;;;;;;5367761;26;20151;-78
2024/04/13 06:21:10;;;;;;;29.27;9.38;;;11.50;100.00;;;;;;5362108;26;20011;-81
2024/04/13 06:23:38;;;;;;;26.17;8.73;;;11.70;100.00;;;;;;5348736;26;20894;-77
2024/04/13 06:26:05;;;;;;;34.53;10.23;;;12.00;100.00;;;;;;5366781;26;20007;-77
2024/04/13 06:28:32;;;;;;;28.08;9.40;;;12.50;100.00;;;;;;5366169;26;20930;-77
2024/04/13 06:30:59;;;;;;;32.17;10.13;;;12.80;100.00;;;;;;5367763;26;20035;-77
2024/04/13 06:33:26;;;;;;;21.63;7.20;;;13.20;100.00;;;;;;5355996;26;20081;-77
2024/04/13 06:35:54;;;;;;;23.48;8.00;;;13.40;100.00;;;;;;5357812;26;20000;-78
2024/04/13 06:38:26;;;;;;;21.58;7.95;;;13.50;100.00;;;;;;5355203;26;20008;-78
2024/04/13 06:40:53;;;;;;;20.17;7.15;;;13.50;100.00;;;;;;5343001;26;20016;-78
2024/04/13 06:43:20;;;;;;;16.95;6.68;;;13.50;100.00;;;;;;5372363;26;20020;-78
2024/04/13 06:45:48;;;;;;;21.10;6.90;;;13.60;100.00;;;;;;5365190;26;20071;-77
2024/04/13 06:48:15;;;;;;;14.25;6.63;;;13.70;100.00;;;;;;5367911;26;20037;-78
2024/04/13 06:50:43;;;;;;;23.13;6.40;;;13.80;100.00;;;;;;5361175;26;20000;-78
2024/04/13 06:53:10;;;;;;;16.33;5.88;;;13.90;100.00;;;;;;5370106;26;20001;-78
2024/04/13 06:55:37;;;;;;;13.90;6.15;;;14.00;100.00;;;;;;5371491;26;20099;-78
2024/04/13 06:58:04;;;;;;;16.90;5.72;;;14.10;100.00;;;;;;5359784;26;20005;-78
2024/04/13 07:00:31;;;;;;;21.08;6.40;;;14.10;100.00;;;;;;5364352;26;20001;-78
2024/04/13 07:02:58;;;;;;;14.15;5.32;;;14.20;100.00;;;;;;5370982;26;20012;-78
2024/04/13 07:05:25;;;;;;;9.00;5.25;;;14.40;100.00;;;;;;5357008;26;20489;-78
2024/04/13 07:07:52;;;;;;;11.80;5.25;;;14.60;100.00;;;;;;5331016;26;20000;-77
2024/04/13 07:10:19;;;;;;;15.00;5.57;;;14.80;100.00;;;;;;5331278;26;20035;-77
2024/04/13 07:12:46;;;;;;;15.48;5.28;;;15.10;100.00;;;;;;5322698;26;20008;-77
2024/04/13 07:15:13;;;;;;;13.32;4.85;;;15.30;100.00;;;;;;5376756;26;20007;-77
2024/04/13 07:17:40;;;;;;;13.73;5.03;;;15.70;100.00;;;;;;5370446;26;20000;-77
2024/04/13 07:20:08;;;;;;;9.32;4.43;;;16.10;100.00;;;;;;5339654;26;20788;-77
2024/04/13 07:22:35;;;;;;;9.82;4.35;;;16.10;100.00;;;;;;5369278;26;20013;-77
2024/04/13 07:25:02;;;;;;;11.18;4.65;;;16.60;100.00;;;;;;5368621;26;20471;-77
2024/04/13 07:27:29;;;;;;;13.90;4.20;;;16.80;100.00;;;;;;5366074;26;20722;-77
2024/04/13 07:29:56;;;;;;;12.50;4.60;;;16.80;100.00;;;;;;5363835;26;20019;-77
2024/04/13 07:32:22;;;;;;;11.00;3.70;;;16.70;100.00;;;;;;5339796;26;20317;-77
2024/04/13 07:34:49;;;;;;;7.90;4.53;;;16.90;100.00;;;;;;5369259;26;20004;-78
2024/04/13 07:37:16;;;;;;;13.30;4.63;;;17.00;100.00;;;;;;5370040;26;20000;-77
2024/04/13 07:39:43;;;;;;;15.45;4.90;;;17.50;100.00;;;;;;5370317;26;20001;-77
2024/04/13 07:42:10;;;;;;;13.88;4.35;;;17.90;100.00;;;;;;5362683;26;20705;-77
2024/04/13 07:44:37;;;;;;;13.00;5.50;;;18.40;100.00;;;;;;5368709;26;20000;-77
2024/04/13 07:47:08;;;;;;;8.85;4.00;;;18.30;100.00;;;;;;5349337;26;20250;-77
2024/04/13 07:49:35;;;;;;;9.38;4.22;;;18.50;100.00;;;;;;5333461;26;20021;-77
2024/04/13 07:52:01;;;;;;;24.33;5.72;;;18.80;100.00;;;;;;5360013;26;19996;-77
2024/04/13 07:54:28;;;;;;;9.63;4.50;;;18.40;100.00;;;;;;5369499;26;20008;-77
2024/04/13 07:56:55;;;;;;;9.57;4.90;;;18.20;100.00;;;;;;5369556;26;20012;-77
2024/04/13 07:59:22;;;;;;;12.35;5.03;;;17.80;100.00;;;;;;5369084;26;20005;-77
2024/04/13 08:01:49;;;;;;;17.00;7.38;;;17.90;100.00;;;;;;5368900;26;20015;-77
2024/04/13 08:04:17;;;;;;;11.50;5.45;;;17.80;100.00;;;;;;5352106;26;20049;-77
2024/04/13 08:06:44;;;;;;;8.45;4.13;;;17.90;100.00;;;;;;5355197;26;20000;-77
2024/04/13 08:09:11;;;;;;;12.50;4.10;;;18.20;100.00;;;;;;5368956;26;20000;-77
2024/04/13 08:11:39;;;;;;;9.55;3.45;;;18.20;100.00;;;;;;5331929;26;20012;-77
2024/04/13 08:14:08;;;;;;;12.02;4.20;;;18.30;100.00;;;;;;5367303;26;20012;-77
2024/04/13 08:16:39;;;;;;;11.10;3.85;;;18.60;100.00;;;;;;5374198;26;20699;-77
2024/04/13 08:19:06;;;;;;;12.55;3.55;;;18.80;100.00;;;;;;5369293;26;20034;-77
2024/04/13 08:21:36;;;;;;;7.68;3.70;;;18.80;100.00;;;;;;5368111;26;20005;-77
2024/04/13 08:24:03;;;;;;;9.48;4.22;;;18.90;100.00;;;;;;5338497;26;20011;-77
2024/04/13 08:26:30;;;;;;;10.35;4.03;;;18.90;100.00;;;;;;5364745;26;20392;-77
2024/04/13 08:28:57;;;;;;;8.70;3.15;;;19.20;100.00;;;;;;5329115;26;19996;-77
2024/04/13 08:31:27;;;;;;;9.43;3.70;;;19.60;100.00;;;;;;5373972;26;20000;-77
2024/04/13 08:33:54;;;;;;;6.88;3.50;;;19.60;100.00;;;;;;5385480;26;19999;-77
2024/04/13 08:36:24;;;;;;;16.13;6.95;;;19.70;100.00;;;;;;5370355;26;20005;-77
2024/04/13 08:38:52;;;;;;;11.68;3.92;;;19.80;100.00;;;;;;5376105;26;20008;-77
2024/04/13 08:41:37;;;;;;;8.68;3.80;;;19.80;100.00;;;;;;5361948;26;20019;-77
2024/04/13 08:44:04;;;;;;;8.85;3.10;;;19.30;100.00;;;;;;5367266;26;20000;-81
2024/04/13 08:46:36;;;;;;;12.93;5.35;;;19.20;100.00;;;;;;5364516;26;20004;-78
2024/04/13 08:49:04;;;;;;;7.72;3.15;;;19.10;100.00;;;;;;5370081;26;20925;-81
2024/04/13 08:51:33;;;;;;;9.20;3.70;;;19.30;100.00;;;;;;5354341;26;20019;-78
2024/04/13 08:54:01;;;;;;;14.20;4.30;;;19.40;100.00;;;;;;5331916;26;20012;-77
2024/04/13 08:56:29;;;;;;;10.90;4.72;;;19.50;100.00;;;;;;5367774;26;20023;-78
2024/04/13 08:59:00;;;;;;;12.80;3.72;;;19.60;100.00;;;;;;5366665;26;20035;-77
2024/04/13 09:01:27;;;;;;;18.33;4.63;;;19.40;100.00;;;;;;5366994;26;20015;-77
2024/04/13 09:03:58;;;;;;;12.20;3.65;;;19.40;100.00;;;;;;5365662;26;20468;-76
2024/04/13 09:06:28;;;;;;;9.57;4.15;;;19.60;100.00;;;;;;5336255;26;20023;-77
2024/04/13 09:09:04;;;;;;;12.20;3.35;;;19.70;100.00;;;;;;5318960;26;20928;-77
2024/04/13 09:11:32;;;;;;;11.52;3.63;;;19.50;100.00;;;;;;5368258;26;20000;-77
2024/04/13 09:13:59;;;;;;;8.80;3.65;;;19.50;100.00;;;;;;5368058;26;21040;-77
2024/04/13 09:16:26;;;;;;;12.15;4.47;;;19.50;100.00;;;;;;5365876;26;20047;-77
2024/04/13 09:18:53;;;;;;;11.80;4.50;;;19.70;100.00;;;;;;5326259;26;20001;-77
2024/04/13 09:21:20;;;;;;;16.55;8.65;;;19.70;100.00;;;;;;5355853;26;19996;-77
2024/04/13 09:23:49;;;;;;;12.52;4.97;;;19.50;100.00;;;;;;5333559;26;20777;-77
2024/04/13 09:26:16;;;;;;;9.15;3.75;;;19.60;100.00;;;;;;5365191;26;20004;-76
2024/04/13 09:28:47;;;;;;;9.05;4.72;;;19.70;100.00;;;;;;5376206;26;20471;-76
2024/04/13 09:31:15;;;;;;;7.22;3.78;;;19.70;100.00;;;;;;5365159;26;20007;-76
2024/04/13 09:33:50;;;;;;;10.68;3.80;;;19.60;100.00;;;;;;5353960;26;20010;-77
2024/04/13 09:36:21;;;;;;;;;;;19.90;100.00;;;;;;5367068;26;20001;-76
2024/04/13 09:38:49;;;;;;;16.35;5.20;;;20.00;100.00;;;;;;5366507;26;19925;-76
2024/04/13 09:41:16;;;;;;;12.88;4.20;;;20.30;100.00;;;;;;5367123;26;20004;-77
2024/04/13 09:43:51;;;;;;;7.75;4.00;;;20.80;100.00;;;;;;5367575;26;20020;-77
2024/04/13 09:46:19;;;;;;;6.45;3.25;;;21.30;100.00;;;;;;5332522;26;20744;-77
2024/04/13 09:48:46;;;;;;;9.73;3.35;;;21.60;100.00;;;;;;5336430;26;20336;-76
2024/04/13 09:51:13;;;;;;;11.32;5.05;;;21.70;100.00;;;;;;5361146;26;20036;-77
2024/04/13 09:53:41;;;;;;;9.65;3.33;;;22.00;100.00;;;;;;5368024;26;20016;-77
2024/04/13 09:56:10;;;;;;;7.28;2.75;;;21.90;100.00;;;;;;5383088;26;20106;-77
2024/04/13 09:58:37;;;;;;;8.80;3.40;;;22.00;100.00;;;;;;5373054;26;20000;-77
2024/04/13 10:01:05;;;;;;;15.38;5.03;;;21.90;100.00;;;;;;5368082;26;20001;-77
2024/04/13 10:03:33;;;;;;;13.25;6.60;;;21.90;100.00;;;;;;5365513;26;20008;-76
2024/04/13 10:06:02;;;;;;;7.25;4.32;;;21.70;100.00;;;;;;5356031;26;20351;-77
2024/04/13 10:08:31;;;;;;;4.78;2.97;;;22.10;100.00;;;;;;5360046;26;20051;-77
2024/04/13 10:11:02;;;;;;;6.93;3.90;;;22.10;100.00;;;;;;5358081;26;20005;-77
2024/04/13 10:13:36;;;;;;;8.98;3.85;;;21.70;100.00;;;;;;5368326;26;20090;-77
2024/04/13 10:16:05;;;;;;;10.73;3.70;;;21.90;100.00;;;;;;5380789;26;20124;-77
2024/04/13 10:18:32;;;;;;;7.57;3.85;;;22.00;100.00;;;;;;5363789;26;20019;-77
2024/04/13 10:21:03;;;;;;;10.20;3.92;;;22.30;100.00;;;;;;5367548;26;20036;-77
2024/04/13 10:23:38;;;;;;;7.38;2.95;;;23.00;100.00;;;;;;5335298;26;20086;-77
2024/04/13 10:26:05;;;;;;;;;;;22.80;100.00;;;;;;5368995;26;20004;-79
2024/04/13 10:28:32;;;;;;;8.88;4.03;;;22.40;100.00;;;;;;5368373;26;19925;-80
2024/04/13 10:30:59;;;;;;;7.22;2.90;;;22.70;100.00;;;;;;5359074;26;20111;-80
2024/04/13 10:33:28;;;;;;;29.40;5.28;;;23.40;100.00;;;;;;5357669;26;20433;-79
2024/04/13 10:36:04;;;;;;;19.60;4.15;;;23.10;100.00;;;;;;5347948;26;20012;-77
2024/04/13 10:38:36;;;;;;;6.93;3.13;;;22.60;100.00;;;;;;5359669;26;20742;-76
2024/04/13 10:41:03;;;;;;;12.00;3.47;;;22.90;100.00;;;;;;5356548;26;20017;-76
2024/04/13 10:43:31;;;;;;;26.13;7.80;;;23.10;100.00;;;;;;5365400;26;20004;-78
2024/04/13 10:46:02;;;;;;;54.70;7.90;;;23.60;100.00;;;;;;5345701;26;20001;-79
2024/04/13 10:48:31;;;;;;;6.05;3.45;;;23.70;100.00;;;;;;5368568;26;19996;-78
2024/04/13 10:50:59;;;;;;;13.45;3.25;;;23.20;100.00;;;;;;5366888;26;20667;-78
2024/04/13 10:53:28;;;;;;;13.25;3.78;;;23.00;100.00;;;;;;5366028;26;20023;-78
2024/04/13 10:55:56;;;;;;;8.50;2.60;;;22.90;100.00;;;;;;5355349;26;20119;-78
2024/04/13 10:58:29;;;;;;;5.80;2.03;;;23.10;100.00;;;;;;5371327;26;20008;-77
2024/04/13 11:00:57;;;;;;;6.68;2.85;;;23.00;100.00;;;;;;5347769;26;20015;-79
2024/04/13 11:03:24;;;;;;;7.97;3.10;;;23.30;100.00;;;;;;5370029;26;20579;-78
2024/04/13 11:05:51;;;;;;;6.95;3.25;;;23.10;100.00;;;;;;5368407;26;20008;-79
2024/04/13 11:08:23;;;;;;;6.30;2.50;;;23.00;100.00;;;;;;5362189;26;20001;-78
2024/04/13 11:11:01;;;;;;;6.38;2.90;;;23.40;100.00;;;;;;5327206;26;20038;-77
2024/04/13 11:13:30;;;;;;;6.35;2.70;;;23.30;100.00;;;;;;5365498;26;19997;-78
2024/04/13 11:15:57;;;;;;;6.22;2.38;;;23.40;100.00;;;;;;5338550;26;20743;-78
2024/04/13 11:18:24;;;;;;;6.03;1.80;;;23.00;100.00;;;;;;5365243;26;20000;-78
2024/04/13 11:20:54;;;;;;;7.93;2.40;;;23.00;100.00;;;;;;5347523;26;20005;-78
2024/04/13 11:23:22;;;;;;;7.97;1.80;;;23.30;100.00;;;;;;5360993;26;20016;-78
2024/04/13 11:25:49;;;;;;;10.23;2.10;;;23.30;96.70;;;;;;5361015;26;20422;-78
2024/04/13 11:28:16;;;;;;;6.75;1.90;;;23.10;95.10;;;;;;5364128;26;20098;-78
2024/04/13 11:30:43;;;;;;;9.82;2.60;;;23.20;97.80;;;;;;5340589;26;20928;-78
2024/04/13 11:33:14;;;;;;;4.63;2.10;;;23.30;95.30;;;;;;5367630;26;20445;-77
2024/04/13 11:35:51;;;;;;;7.95;2.30;;;23.10;95.50;;;;;;5356886;26;20020;-77
2024/04/13 11:38:18;;;;;;;8.60;2.03;;;23.00;94.40;;;;;;5366432;26;20000;-78
2024/04/13 11:40:48;;;;;;;7.70;3.97;;;23.00;93.20;;;;;;5346011;26;20314;-78
2024/04/13 11:43:15;;;;;;;7.55;2.80;;;23.00;94.10;;;;;;5364888;26;20078;-78
2024/04/13 11:45:43;;;;;;;5.38;2.30;;;23.20;94.10;;;;;;5359542;26;20004;-78
2024/04/13 11:48:10;;;;;;;5.97;2.17;;;23.30;89.60;;;;;;5357635;26;20310;-77
2024/04/13 11:50:38;;;;;;;5.60;2.00;;;23.30;88.40;;;;;;5354634;26;20019;-78
2024/04/13 11:53:05;;;;;;;6.25;2.22;;;23.30;90.30;;;;;;5357038;26;20020;-78
2024/04/13 11:55:33;;;;;;;5.40;2.00;;;23.20;88.60;;;;;;5357648;26;20005;-78
2024/04/13 11:58:02;;;;;;;7.45;1.55;;;23.30;80.80;;;;;;5355852;26;20571;-78
2024/04/13 12:00:29;;;;;;;6.47;1.90;;;23.10;80.90;;;;;;5366865;26;20465;-78
2024/04/13 12:02:56;;;;;;;5.05;1.83;;;22.80;83.60;;;;;;5351514;26;20020;-78
2024/04/13 12:05:23;;;;;;;9.10;2.22;;;22.70;84.20;;;;;;5353482;26;20009;-78
2024/04/13 12:07:50;;;;;;;10.82;2.35;;;22.80;80.20;;;;;;5354561;26;20367;-78
2024/04/13 12:10:17;;;;;;;6.43;1.85;;;22.70;83.10;;;;;;5361994;26;20000;-77
2024/04/13 12:12:44;;;;;;;7.65;1.98;;;23.00;80.40;;;;;;5369553;26;20021;-78
2024/04/13 12:15:10;;;;;;;5.57;1.77;;;23.00;83.20;;;;;;5375910;26;20391;-78
2024/04/13 12:17:37;;;;;;;7.22;1.88;;;22.80;82.00;;;;;;5358419;26;20866;-78
2024/04/13 12:20:05;;;;;;;5.93;1.73;;;22.70;83.00;;;;;;5363897;26;20004;-78
2024/04/13 12:22:32;;;;;;;8.13;1.67;;;22.90;82.30;;;;;;5357556;26;20019;-78
2024/04/13 12:24:59;;;;;;;2.97;1.50;;;23.60;81.10;;;;;;5345078;26;20011;-78
2024/04/13 12:27:27;;;;;;;5.32;1.90;;;24.30;77.90;;;;;;5327076;26;20023;-78
2024/04/13 12:29:54;;;;;;;5.22;2.08;;;24.40;76.20;;;;;;5380005;26;20000;-77
2024/04/13 12:32:25;;;;;;;9.35;1.90;;;24.40;68.80;;;;;;5376099;26;20019;-78
2024/04/13 12:34:53;;;;;;;8.27;1.88;;;23.90;71.60;;;;;;5370468;26;20001;-78